Arc Isla Tesoro — 5KTK — position and weather

sailwx.info

Track history (hours):
 
Tides and Currents Weather Stations Pressure Air Temp Water Temp Dewpoint Dewpoint Depression Visibility Wind Speed Wind Dir Waves Ship Positions

Arc Isla Tesoro

Last reported at 2018-Apr-18 19:22 UTC. Time now 2018-Apr-26 11:39 UTC.
Position N 10°25' W 075°33'.

Type: Other ship. MMSI: 730050001.

Date/timePositionNaut miles runAvg speedWind from/ knotsBaromVisibWave heightAir tempDewpointWater temp
2018-Apr-18 19:22N 10°25' W 075°33'1 2.8
2018-Apr-18 19:01N 10°24' W 075°32'510.3
2018-Apr-18 18:29N 10°19' W 075°35'8 1.0
2018-Apr-18 10:37N 10°13' W 075°39'213.4
2018-Apr-18 10:30N 10°14' W 075°39'612.6
2018-Apr-18 10:00N 10°19' W 075°34'6 0.2
2018-Apr-16 20:40N 10°25' W 075°33'0 1.4
2018-Apr-16 20:30N 10°25' W 075°33'  
2018-Apr-09 17:37N 10°25' W 075°33'1 6.9
2018-Apr-09 17:30N 10°25' W 075°33'510.7
2018-Apr-09 17:00N 10°19' W 075°31'0 0.2
2018-Apr-09 16:28N 10°19' W 075°32'1 1.4
2018-Apr-09 16:00N 10°20' W 075°31'2 3.3
2018-Apr-09 15:30N 10°21' W 075°31'0 0.1
2018-Apr-09 15:00N 10°22' W 075°31'0 0.0
2018-Apr-09 14:30N 10°22' W 075°31'3 3.3
2018-Apr-09 13:42N 10°24' W 075°32'0 0.1
2018-Apr-09 13:19N 10°24' W 075°32'  
Track history (hours):
 
Tides and Currents Weather Stations Pressure Air Temp Water Temp Dewpoint Dewpoint Depression Visibility Wind Speed Wind Dir Waves Ship Positions

Arc Isla Tesoro

Last reported at 2018-Apr-18 19:22 UTC. Time now 2018-Apr-26 11:39 UTC.
Position N 10°25' W 075°33'.

Type: Other ship. MMSI: 730050001.

Date/timePositionNaut miles runAvg speedWind from/ knotsBaromVisibWave heightAir tempDewpointWater temp
2018-Apr-18 19:22N 10°25' W 075°33'1 2.8
2018-Apr-18 19:01N 10°24' W 075°32'510.3
2018-Apr-18 18:29N 10°19' W 075°35'8 1.0
2018-Apr-18 10:37N 10°13' W 075°39'213.4
2018-Apr-18 10:30N 10°14' W 075°39'612.6
2018-Apr-18 10:00N 10°19' W 075°34'6 0.2
2018-Apr-16 20:40N 10°25' W 075°33'0 1.4
2018-Apr-16 20:30N 10°25' W 075°33'  
2018-Apr-09 17:37N 10°25' W 075°33'1 6.9
2018-Apr-09 17:30N 10°25' W 075°33'510.7
2018-Apr-09 17:00N 10°19' W 075°31'0 0.2
2018-Apr-09 16:28N 10°19' W 075°32'1 1.4
2018-Apr-09 16:00N 10°20' W 075°31'2 3.3
2018-Apr-09 15:30N 10°21' W 075°31'0 0.1
2018-Apr-09 15:00N 10°22' W 075°31'0 0.0
2018-Apr-09 14:30N 10°22' W 075°31'3 3.3
2018-Apr-09 13:42N 10°24' W 075°32'0 0.1
2018-Apr-09 13:19N 10°24' W 075°32'  

Dump ship's entire track history